sensor_id;sensor_type;location;lat;lon;timestamp;temperature;humidity
10538;DHT22;5317;49.048;8.468;2023-05-29T00:00:59;20.30;54.70
10538;DHT22;5317;49.048;8.468;2023-05-29T00:03:26;20.40;55.00
10538;DHT22;5317;49.048;8.468;2023-05-29T00:05:53;20.40;54.90
10538;DHT22;5317;49.048;8.468;2023-05-29T00:08:21;20.40;54.50
10538;DHT22;5317;49.048;8.468;2023-05-29T00:10:48;20.40;54.30
10538;DHT22;5317;49.048;8.468;2023-05-29T00:13:15;20.40;54.00
10538;DHT22;5317;49.048;8.468;2023-05-29T00:15:42;20.40;53.90
10538;DHT22;5317;49.048;8.468;2023-05-29T00:18:08;20.40;53.90
10538;DHT22;5317;49.048;8.468;2023-05-29T00:20:35;20.40;54.00
10538;DHT22;5317;49.048;8.468;2023-05-29T00:23:03;20.40;53.80
10538;DHT22;5317;49.048;8.468;2023-05-29T00:25:32;20.40;53.70
10538;DHT22;5317;49.048;8.468;2023-05-29T00:27:59;20.40;53.70
10538;DHT22;5317;49.048;8.468;2023-05-29T00:30:26;20.40;53.70
10538;DHT22;5317;49.048;8.468;2023-05-29T00:32:53;20.40;53.70
10538;DHT22;5317;49.048;8.468;2023-05-29T00:35:20;20.40;53.70
10538;DHT22;5317;49.048;8.468;2023-05-29T00:37:47;20.40;53.70
10538;DHT22;5317;49.048;8.468;2023-05-29T00:40:14;20.40;53.80
10538;DHT22;5317;49.048;8.468;2023-05-29T00:42:42;20.40;53.80
10538;DHT22;5317;49.048;8.468;2023-05-29T00:45:09;20.30;53.90
10538;DHT22;5317;49.048;8.468;2023-05-29T00:47:38;20.30;54.20
10538;DHT22;5317;49.048;8.468;2023-05-29T00:50:06;20.30;54.20
10538;DHT22;5317;49.048;8.468;2023-05-29T00:52:35;20.30;54.30
10538;DHT22;5317;49.048;8.468;2023-05-29T00:55:02;20.20;54.30
10538;DHT22;5317;49.048;8.468;2023-05-29T00:57:30;20.20;54.40
10538;DHT22;5317;49.048;8.468;2023-05-29T00:59:59;20.20;54.40
10538;DHT22;5317;49.048;8.468;2023-05-29T01:02:28;20.10;54.30
10538;DHT22;5317;49.048;8.468;2023-05-29T01:04:56;20.10;54.20
10538;DHT22;5317;49.048;8.468;2023-05-29T01:07:23;20.10;54.10
10538;DHT22;5317;49.048;8.468;2023-05-29T01:09:51;20.10;54.10
10538;DHT22;5317;49.048;8.468;2023-05-29T01:12:25;20.10;53.90
10538;DHT22;5317;49.048;8.468;2023-05-29T01:15:04;20.10;53.40
10538;DHT22;5317;49.048;8.468;2023-05-29T01:17:42;20.10;53.40
10538;DHT22;5317;49.048;8.468;2023-05-29T01:20:24;20.20;53.30
10538;DHT22;5317;49.048;8.468;2023-05-29T01:23:14;20.10;53.40
10538;DHT22;5317;49.048;8.468;2023-05-29T01:25:58;20.10;53.80
10538;DHT22;5317;49.048;8.468;2023-05-29T01:28:42;20.10;54.50
10538;DHT22;5317;49.048;8.468;2023-05-29T01:31:12;20.10;53.90
10538;DHT22;5317;49.048;8.468;2023-05-29T01:33:39;20.10;54.00
10538;DHT22;5317;49.048;8.468;2023-05-29T01:36:07;20.00;54.00
10538;DHT22;5317;49.048;8.468;2023-05-29T01:38:36;20.00;53.90
10538;DHT22;5317;49.048;8.468;2023-05-29T01:41:04;20.00;53.90
10538;DHT22;5317;49.048;8.468;2023-05-29T01:43:31;20.00;54.10
10538;DHT22;5317;49.048;8.468;2023-05-29T01:45:59;20.00;54.10
10538;DHT22;5317;49.048;8.468;2023-05-29T01:48:27;19.90;54.10
10538;DHT22;5317;49.048;8.468;2023-05-29T01:50:55;19.90;54.30
10538;DHT22;5317;49.048;8.468;2023-05-29T01:53:22;19.90;54.30
10538;DHT22;5317;49.048;8.468;2023-05-29T01:55:49;19.80;54.30
10538;DHT22;5317;49.048;8.468;2023-05-29T01:58:17;19.80;54.40
10538;DHT22;5317;49.048;8.468;2023-05-29T02:00:46;19.80;54.70
10538;DHT22;5317;49.048;8.468;2023-05-29T02:03:15;19.70;54.80
10538;DHT22;5317;49.048;8.468;2023-05-29T02:05:42;19.70;54.70
10538;DHT22;5317;49.048;8.468;2023-05-29T02:08:09;19.60;54.50
10538;DHT22;5317;49.048;8.468;2023-05-29T02:10:37;19.60;54.70
10538;DHT22;5317;49.048;8.468;2023-05-29T02:13:04;19.50;54.70
10538;DHT22;5317;49.048;8.468;2023-05-29T02:15:31;19.50;54.90
10538;DHT22;5317;49.048;8.468;2023-05-29T02:17:58;19.40;54.90
10538;DHT22;5317;49.048;8.468;2023-05-29T02:20:27;19.40;55.00
10538;DHT22;5317;49.048;8.468;2023-05-29T02:22:54;19.30;55.20
10538;DHT22;5317;49.048;8.468;2023-05-29T02:25:21;19.30;55.50
10538;DHT22;5317;49.048;8.468;2023-05-29T02:27:48;19.30;56.00
10538;DHT22;5317;49.048;8.468;2023-05-29T02:30:15;19.20;55.50
10538;DHT22;5317;49.048;8.468;2023-05-29T02:32:42;19.10;55.90
10538;DHT22;5317;49.048;8.468;2023-05-29T02:35:08;19.10;55.90
10538;DHT22;5317;49.048;8.468;2023-05-29T02:37:37;19.10;56.10
10538;DHT22;5317;49.048;8.468;2023-05-29T02:40:04;19.00;56.30
10538;DHT22;5317;49.048;8.468;2023-05-29T02:42:34;19.00;56.40
10538;DHT22;5317;49.048;8.468;2023-05-29T02:45:01;18.90;56.50
10538;DHT22;5317;49.048;8.468;2023-05-29T02:47:28;18.90;56.60
10538;DHT22;5317;49.048;8.468;2023-05-29T02:49:54;18.90;57.00
10538;DHT22;5317;49.048;8.468;2023-05-29T02:52:21;18.80;57.00
10538;DHT22;5317;49.048;8.468;2023-05-29T02:54:50;18.70;56.90
10538;DHT22;5317;49.048;8.468;2023-05-29T02:57:17;18.70;56.90
10538;DHT22;5317;49.048;8.468;2023-05-29T02:59:44;18.70;57.10
10538;DHT22;5317;49.048;8.468;2023-05-29T03:02:11;18.60;57.30
10538;DHT22;5317;49.048;8.468;2023-05-29T03:04:38;18.60;57.30
10538;DHT22;5317;49.048;8.468;2023-05-29T03:07:04;18.50;57.30
10538;DHT22;5317;49.048;8.468;2023-05-29T03:09:32;18.50;57.50
10538;DHT22;5317;49.048;8.468;2023-05-29T03:12:00;18.40;57.50
10538;DHT22;5317;49.048;8.468;2023-05-29T03:14:27;18.40;57.50
10538;DHT22;5317;49.048;8.468;2023-05-29T03:16:54;18.40;57.30
10538;DHT22;5317;49.048;8.468;2023-05-29T03:19:22;18.40;57.60
10538;DHT22;5317;49.048;8.468;2023-05-29T03:21:48;18.30;57.60
10538;DHT22;5317;49.048;8.468;2023-05-29T03:24:15;18.20;57.70
10538;DHT22;5317;49.048;8.468;2023-05-29T03:26:43;18.20;57.80
10538;DHT22;5317;49.048;8.468;2023-05-29T03:29:11;18.20;57.90
10538;DHT22;5317;49.048;8.468;2023-05-29T03:31:38;18.20;58.10
10538;DHT22;5317;49.048;8.468;2023-05-29T03:34:05;18.20;58.20
10538;DHT22;5317;49.048;8.468;2023-05-29T03:36:31;18.10;58.30
10538;DHT22;5317;49.048;8.468;2023-05-29T03:38:58;18.10;58.40
10538;DHT22;5317;49.048;8.468;2023-05-29T03:41:25;18.10;58.60
10538;DHT22;5317;49.048;8.468;2023-05-29T03:43:52;18.00;58.60
10538;DHT22;5317;49.048;8.468;2023-05-29T03:46:20;18.00;58.90
10538;DHT22;5317;49.048;8.468;2023-05-29T03:48:47;18.00;59.00
10538;DHT22;5317;49.048;8.468;2023-05-29T03:51:14;17.90;59.00
10538;DHT22;5317;49.048;8.468;2023-05-29T03:53:41;17.90;59.10
10538;DHT22;5317;49.048;8.468;2023-05-29T03:56:08;17.90;59.20
10538;DHT22;5317;49.048;8.468;2023-05-29T03:58:35;17.80;59.20
10538;DHT22;5317;49.048;8.468;2023-05-29T04:01:02;17.90;59.50
10538;DHT22;5317;49.048;8.468;2023-05-29T04:03:31;17.90;59.90
10538;DHT22;5317;49.048;8.468;2023-05-29T04:05:58;17.80;60.50
10538;DHT22;5317;49.048;8.468;2023-05-29T04:08:25;17.80;59.80
10538;DHT22;5317;49.048;8.468;2023-05-29T04:10:52;17.80;59.80
10538;DHT22;5317;49.048;8.468;2023-05-29T04:13:20;17.70;60.00
10538;DHT22;5317;49.048;8.468;2023-05-29T04:15:47;17.70;60.30
10538;DHT22;5317;49.048;8.468;2023-05-29T04:18:14;17.70;60.50
10538;DHT22;5317;49.048;8.468;2023-05-29T04:20:42;17.70;60.60
10538;DHT22;5317;49.048;8.468;2023-05-29T04:23:12;17.80;60.90
10538;DHT22;5317;49.048;8.468;2023-05-29T04:25:39;17.70;61.40
10538;DHT22;5317;49.048;8.468;2023-05-29T04:28:06;17.70;61.90
10538;DHT22;5317;49.048;8.468;2023-05-29T04:30:33;17.70;62.30
10538;DHT22;5317;49.048;8.468;2023-05-29T04:33:01;17.60;62.30
10538;DHT22;5317;49.048;8.468;2023-05-29T04:35:28;17.70;62.60
10538;DHT22;5317;49.048;8.468;2023-05-29T04:37:56;17.60;62.80
10538;DHT22;5317;49.048;8.468;2023-05-29T04:40:23;17.60;63.10
10538;DHT22;5317;49.048;8.468;2023-05-29T04:42:50;17.70;63.50
10538;DHT22;5317;49.048;8.468;2023-05-29T04:45:19;17.70;63.70
10538;DHT22;5317;49.048;8.468;2023-05-29T04:47:46;17.70;64.50
10538;DHT22;5317;49.048;8.468;2023-05-29T04:50:13;17.70;64.80
10538;DHT22;5317;49.048;8.468;2023-05-29T04:52:42;17.70;64.60
10538;DHT22;5317;49.048;8.468;2023-05-29T04:55:10;17.70;64.30
10538;DHT22;5317;49.048;8.468;2023-05-29T04:57:37;17.70;64.40
10538;DHT22;5317;49.048;8.468;2023-05-29T05:00:05;17.80;64.70
10538;DHT22;5317;49.048;8.468;2023-05-29T05:02:34;17.80;65.10
10538;DHT22;5317;49.048;8.468;2023-05-29T05:05:01;17.90;65.90
10538;DHT22;5317;49.048;8.468;2023-05-29T05:07:27;17.90;66.00
10538;DHT22;5317;49.048;8.468;2023-05-29T05:09:54;18.00;65.80
10538;DHT22;5317;49.048;8.468;2023-05-29T05:12:22;18.00;65.20
10538;DHT22;5317;49.048;8.468;2023-05-29T05:14:49;18.10;65.40
10538;DHT22;5317;49.048;8.468;2023-05-29T05:17:16;18.20;65.30
10538;DHT22;5317;49.048;8.468;2023-05-29T05:19:43;18.20;65.30
10538;DHT22;5317;49.048;8.468;2023-05-29T05:22:10;18.20;65.50
10538;DHT22;5317;49.048;8.468;2023-05-29T05:24:37;18.30;65.70
10538;DHT22;5317;49.048;8.468;2023-05-29T05:27:04;18.40;65.70
10538;DHT22;5317;49.048;8.468;2023-05-29T05:29:33;18.50;66.20
10538;DHT22;5317;49.048;8.468;2023-05-29T05:32:00;18.50;65.90
10538;DHT22;5317;49.048;8.468;2023-05-29T05:34:26;18.60;65.90
10538;DHT22;5317;49.048;8.468;2023-05-29T05:36:53;18.70;65.90
10538;DHT22;5317;49.048;8.468;2023-05-29T05:39:20;18.70;65.80
10538;DHT22;5317;49.048;8.468;2023-05-29T05:41:47;18.80;65.30
10538;DHT22;5317;49.048;8.468;2023-05-29T05:44:14;18.90;65.00
10538;DHT22;5317;49.048;8.468;2023-05-29T05:46:42;18.90;64.40
10538;DHT22;5317;49.048;8.468;2023-05-29T05:49:10;19.00;65.10
10538;DHT22;5317;49.048;8.468;2023-05-29T05:51:37;19.10;64.50
10538;DHT22;5317;49.048;8.468;2023-05-29T05:54:04;19.20;64.00
10538;DHT22;5317;49.048;8.468;2023-05-29T05:56:31;19.20;63.80
10538;DHT22;5317;49.048;8.468;2023-05-29T05:58:57;19.30;63.50
10538;DHT22;5317;49.048;8.468;2023-05-29T06:01:24;19.40;63.20
10538;DHT22;5317;49.048;8.468;2023-05-29T06:03:52;19.50;63.20
10538;DHT22;5317;49.048;8.468;2023-05-29T06:06:19;19.60;63.70
10538;DHT22;5317;49.048;8.468;2023-05-29T06:08:47;19.60;63.70
10538;DHT22;5317;49.048;8.468;2023-05-29T06:11:14;19.70;63.50
10538;DHT22;5317;49.048;8.468;2023-05-29T06:13:41;19.80;63.00
10538;DHT22;5317;49.048;8.468;2023-05-29T06:16:08;19.90;62.70
10538;DHT22;5317;49.048;8.468;2023-05-29T06:18:35;20.00;63.00
10538;DHT22;5317;49.048;8.468;2023-05-29T06:21:03;20.00;62.20
10538;DHT22;5317;49.048;8.468;2023-05-29T06:23:32;20.10;62.20
10538;DHT22;5317;49.048;8.468;2023-05-29T06:26:01;20.20;61.70
10538;DHT22;5317;49.048;8.468;2023-05-29T06:28:28;20.30;61.90
10538;DHT22;5317;49.048;8.468;2023-05-29T06:30:55;20.40;61.50
10538;DHT22;5317;49.048;8.468;2023-05-29T06:33:22;20.40;61.40
10538;DHT22;5317;49.048;8.468;2023-05-29T06:35:49;20.50;61.50
10538;DHT22;5317;49.048;8.468;2023-05-29T06:38:17;20.60;61.30
10538;DHT22;5317;49.048;8.468;2023-05-29T06:40:44;20.70;60.20
10538;DHT22;5317;49.048;8.468;2023-05-29T06:43:11;20.70;59.90
10538;DHT22;5317;49.048;8.468;2023-05-29T06:45:38;20.80;59.80
10538;DHT22;5317;49.048;8.468;2023-05-29T06:48:06;20.90;59.50
10538;DHT22;5317;49.048;8.468;2023-05-29T06:50:33;21.00;59.20
10538;DHT22;5317;49.048;8.468;2023-05-29T06:53:00;21.10;59.10
10538;DHT22;5317;49.048;8.468;2023-05-29T06:55:28;21.20;58.50
10538;DHT22;5317;49.048;8.468;2023-05-29T06:57:55;21.30;58.90
10538;DHT22;5317;49.048;8.468;2023-05-29T07:00:23;21.30;57.80
10538;DHT22;5317;49.048;8.468;2023-05-29T07:02:50;21.50;57.80
10538;DHT22;5317;49.048;8.468;2023-05-29T07:05:17;21.60;57.80
10538;DHT22;5317;49.048;8.468;2023-05-29T07:07:44;21.70;58.20
10538;DHT22;5317;49.048;8.468;2023-05-29T07:10:11;21.70;57.60
10538;DHT22;5317;49.048;8.468;2023-05-29T07:12:39;21.80;57.00
10538;DHT22;5317;49.048;8.468;2023-05-29T07:15:07;21.90;56.90
10538;DHT22;5317;49.048;8.468;2023-05-29T07:17:34;22.00;56.70
10538;DHT22;5317;49.048;8.468;2023-05-29T07:20:00;22.10;56.70
10538;DHT22;5317;49.048;8.468;2023-05-29T07:22:28;22.20;55.60
10538;DHT22;5317;49.048;8.468;2023-05-29T07:24:55;22.30;54.80
10538;DHT22;5317;49.048;8.468;2023-05-29T07:27:22;22.40;54.70
10538;DHT22;5317;49.048;8.468;2023-05-29T07:29:50;22.50;54.60
10538;DHT22;5317;49.048;8.468;2023-05-29T07:32:17;22.50;54.80
10538;DHT22;5317;49.048;8.468;2023-05-29T07:34:44;22.60;55.00
10538;DHT22;5317;49.048;8.468;2023-05-29T07:37:11;22.80;54.80
10538;DHT22;5317;49.048;8.468;2023-05-29T07:39:38;22.80;54.80
10538;DHT22;5317;49.048;8.468;2023-05-29T07:42:05;23.00;54.40
10538;DHT22;5317;49.048;8.468;2023-05-29T07:44:32;23.10;53.90
10538;DHT22;5317;49.048;8.468;2023-05-29T07:47:01;23.20;53.00
10538;DHT22;5317;49.048;8.468;2023-05-29T07:49:27;23.20;52.90
10538;DHT22;5317;49.048;8.468;2023-05-29T07:51:54;23.30;53.50
10538;DHT22;5317;49.048;8.468;2023-05-29T07:54:21;23.40;53.20
10538;DHT22;5317;49.048;8.468;2023-05-29T07:56:49;23.50;53.40
10538;DHT22;5317;49.048;8.468;2023-05-29T07:59:16;23.50;53.00
10538;DHT22;5317;49.048;8.468;2023-05-29T08:01:43;23.70;52.90
10538;DHT22;5317;49.048;8.468;2023-05-29T08:04:11;23.80;52.50
10538;DHT22;5317;49.048;8.468;2023-05-29T08:06:39;23.80;52.80
10538;DHT22;5317;49.048;8.468;2023-05-29T08:09:07;23.90;52.30
10538;DHT22;5317;49.048;8.468;2023-05-29T08:11:35;24.10;53.00
10538;DHT22;5317;49.048;8.468;2023-05-29T08:14:02;24.10;52.50
10538;DHT22;5317;49.048;8.468;2023-05-29T08:16:29;24.20;52.20
10538;DHT22;5317;49.048;8.468;2023-05-29T08:18:56;24.30;52.60
10538;DHT22;5317;49.048;8.468;2023-05-29T08:21:24;24.40;52.70
10538;DHT22;5317;49.048;8.468;2023-05-29T08:23:51;24.50;52.20
10538;DHT22;5317;49.048;8.468;2023-05-29T08:26:18;24.60;52.60
10538;DHT22;5317;49.048;8.468;2023-05-29T08:28:46;24.60;51.80
10538;DHT22;5317;49.048;8.468;2023-05-29T08:31:13;24.70;50.80
10538;DHT22;5317;49.048;8.468;2023-05-29T08:33:39;24.80;51.10
10538;DHT22;5317;49.048;8.468;2023-05-29T08:36:06;24.80;50.60
10538;DHT22;5317;49.048;8.468;2023-05-29T08:38:35;24.90;51.30
10538;DHT22;5317;49.048;8.468;2023-05-29T08:41:02;25.00;51.10
10538;DHT22;5317;49.048;8.468;2023-05-29T08:43:31;25.10;51.80
10538;DHT22;5317;49.048;8.468;2023-05-29T08:46:00;25.20;50.80
10538;DHT22;5317;49.048;8.468;2023-05-29T08:48:28;25.30;51.00
10538;DHT22;5317;49.048;8.468;2023-05-29T08:50:56;25.40;50.70
10538;DHT22;5317;49.048;8.468;2023-05-29T08:53:25;25.40;50.90
10538;DHT22;5317;49.048;8.468;2023-05-29T08:55:53;25.60;50.80
10538;DHT22;5317;49.048;8.468;2023-05-29T08:58:22;25.60;50.20
10538;DHT22;5317;49.048;8.468;2023-05-29T09:00:50;25.70;49.70
10538;DHT22;5317;49.048;8.468;2023-05-29T09:03:17;25.80;49.70
10538;DHT22;5317;49.048;8.468;2023-05-29T09:05:45;25.90;48.80
10538;DHT22;5317;49.048;8.468;2023-05-29T09:08:13;25.90;49.40
10538;DHT22;5317;49.048;8.468;2023-05-29T09:10:41;26.00;49.50
10538;DHT22;5317;49.048;8.468;2023-05-29T09:13:10;26.10;49.50
10538;DHT22;5317;49.048;8.468;2023-05-29T09:15:37;26.20;48.90
10538;DHT22;5317;49.048;8.468;2023-05-29T09:18:06;26.30;49.60
10538;DHT22;5317;49.048;8.468;2023-05-29T09:20:34;26.40;49.40
10538;DHT22;5317;49.048;8.468;2023-05-29T09:23:04;26.50;49.20
10538;DHT22;5317;49.048;8.468;2023-05-29T09:25:33;26.60;48.70
10538;DHT22;5317;49.048;8.468;2023-05-29T09:28:02;26.60;47.30
10538;DHT22;5317;49.048;8.468;2023-05-29T09:30:36;26.70;47.50
10538;DHT22;5317;49.048;8.468;2023-05-29T09:33:03;26.70;49.00
10538;DHT22;5317;49.048;8.468;2023-05-29T09:35:35;26.80;49.00
10538;DHT22;5317;49.048;8.468;2023-05-29T09:38:02;27.00;48.00
10538;DHT22;5317;49.048;8.468;2023-05-29T09:40:33;27.10;47.90
10538;DHT22;5317;49.048;8.468;2023-05-29T09:43:04;27.20;47.30
10538;DHT22;5317;49.048;8.468;2023-05-29T09:45:36;27.30;46.80
10538;DHT22;5317;49.048;8.468;2023-05-29T09:48:05;27.30;47.40
10538;DHT22;5317;49.048;8.468;2023-05-29T09:50:33;27.40;47.40
10538;DHT22;5317;49.048;8.468;2023-05-29T09:53:01;27.50;47.40
10538;DHT22;5317;49.048;8.468;2023-05-29T09:55:29;27.60;46.70
10538;DHT22;5317;49.048;8.468;2023-05-29T09:57:58;27.60;46.50
10538;DHT22;5317;49.048;8.468;2023-05-29T10:00:25;27.70;46.30
10538;DHT22;5317;49.048;8.468;2023-05-29T10:02:54;27.90;46.30
10538;DHT22;5317;49.048;8.468;2023-05-29T10:05:21;28.00;45.40
10538;DHT22;5317;49.048;8.468;2023-05-29T10:07:50;28.00;46.40
10538;DHT22;5317;49.048;8.468;2023-05-29T10:10:19;28.10;46.40
10538;DHT22;5317;49.048;8.468;2023-05-29T10:12:48;28.20;45.80
10538;DHT22;5317;49.048;8.468;2023-05-29T10:15:17;28.20;45.00
10538;DHT22;5317;49.048;8.468;2023-05-29T10:17:50;28.40;44.60
10538;DHT22;5317;49.048;8.468;2023-05-29T10:20:20;28.40;44.60
10538;DHT22;5317;49.048;8.468;2023-05-29T10:22:49;28.40;45.10
10538;DHT22;5317;49.048;8.468;2023-05-29T10:25:18;28.50;44.80
10538;DHT22;5317;49.048;8.468;2023-05-29T10:27:47;28.70;44.40
10538;DHT22;5317;49.048;8.468;2023-05-29T10:30:25;28.70;43.90
10538;DHT22;5317;49.048;8.468;2023-05-29T10:35:48;28.80;43.00
10538;DHT22;5317;49.048;8.468;2023-05-29T10:38:16;28.90;43.70
10538;DHT22;5317;49.048;8.468;2023-05-29T10:40:44;29.00;43.80
10538;DHT22;5317;49.048;8.468;2023-05-29T10:43:30;29.10;43.40
10538;DHT22;5317;49.048;8.468;2023-05-29T10:45:57;29.10;42.60
10538;DHT22;5317;49.048;8.468;2023-05-29T10:48:41;29.20;42.10
10538;DHT22;5317;49.048;8.468;2023-05-29T10:51:27;29.30;42.10
10538;DHT22;5317;49.048;8.468;2023-05-29T10:53:54;29.30;42.30
10538;DHT22;5317;49.048;8.468;2023-05-29T10:56:22;29.50;42.30
10538;DHT22;5317;49.048;8.468;2023-05-29T10:58:57;29.50;42.00
10538;DHT22;5317;49.048;8.468;2023-05-29T11:01:27;29.60;42.50
10538;DHT22;5317;49.048;8.468;2023-05-29T11:04:27;29.70;41.70
10538;DHT22;5317;49.048;8.468;2023-05-29T11:06:58;29.70;40.80
10538;DHT22;5317;49.048;8.468;2023-05-29T11:09:27;29.80;41.10
10538;DHT22;5317;49.048;8.468;2023-05-29T11:12:10;29.90;40.90
10538;DHT22;5317;49.048;8.468;2023-05-29T11:14:45;29.90;40.10
10538;DHT22;5317;49.048;8.468;2023-05-29T11:17:43;30.00;39.70
10538;DHT22;5317;49.048;8.468;2023-05-29T11:20:17;30.10;39.20
10538;DHT22;5317;49.048;8.468;2023-05-29T11:23:00;30.10;39.50
10538;DHT22;5317;49.048;8.468;2023-05-29T11:25:28;30.10;39.40
10538;DHT22;5317;49.048;8.468;2023-05-29T11:27:55;30.20;40.30
10538;DHT22;5317;49.048;8.468;2023-05-29T11:30:23;30.30;39.70
10538;DHT22;5317;49.048;8.468;2023-05-29T11:32:52;30.30;40.10
10538;DHT22;5317;49.048;8.468;2023-05-29T11:35:21;30.30;39.70
10538;DHT22;5317;49.048;8.468;2023-05-29T11:37:48;30.40;38.90
10538;DHT22;5317;49.048;8.468;2023-05-29T11:40:17;30.40;39.10
10538;DHT22;5317;49.048;8.468;2023-05-29T11:42:45;30.50;39.60
10538;DHT22;5317;49.048;8.468;2023-05-29T11:45:14;30.50;39.40
10538;DHT22;5317;49.048;8.468;2023-05-29T11:47:52;30.50;39.00
10538;DHT22;5317;49.048;8.468;2023-05-29T11:50:19;30.60;38.10
10538;DHT22;5317;49.048;8.468;2023-05-29T11:52:46;30.70;39.60
10538;DHT22;5317;49.048;8.468;2023-05-29T11:55:13;30.70;38.50
10538;DHT22;5317;49.048;8.468;2023-05-29T11:57:42;30.70;39.20
10538;DHT22;5317;49.048;8.468;2023-05-29T12:00:13;30.70;37.90
10538;DHT22;5317;49.048;8.468;2023-05-29T12:02:40;30.80;37.40
10538;DHT22;5317;49.048;8.468;2023-05-29T12:05:08;30.90;38.00
10538;DHT22;5317;49.048;8.468;2023-05-29T12:07:36;30.80;37.70
10538;DHT22;5317;49.048;8.468;2023-05-29T12:10:10;30.80;37.30
10538;DHT22;5317;49.048;8.468;2023-05-29T12:12:36;30.90;37.60
10538;DHT22;5317;49.048;8.468;2023-05-29T12:15:07;30.90;38.20
10538;DHT22;5317;49.048;8.468;2023-05-29T12:17:34;31.00;37.80
10538;DHT22;5317;49.048;8.468;2023-05-29T12:20:03;31.10;37.40
10538;DHT22;5317;49.048;8.468;2023-05-29T12:22:33;31.10;37.00
10538;DHT22;5317;49.048;8.468;2023-05-29T12:25:06;31.10;37.10
10538;DHT22;5317;49.048;8.468;2023-05-29T12:27:33;31.20;37.40
10538;DHT22;5317;49.048;8.468;2023-05-29T12:30:04;31.30;37.20
10538;DHT22;5317;49.048;8.468;2023-05-29T12:32:37;31.30;37.00
10538;DHT22;5317;49.048;8.468;2023-05-29T12:35:13;31.30;35.00
10538;DHT22;5317;49.048;8.468;2023-05-29T12:37:44;31.30;34.90
10538;DHT22;5317;49.048;8.468;2023-05-29T12:40:19;31.30;36.40
10538;DHT22;5317;49.048;8.468;2023-05-29T12:42:46;31.30;35.10
10538;DHT22;5317;49.048;8.468;2023-05-29T12:45:14;31.40;35.80
10538;DHT22;5317;49.048;8.468;2023-05-29T12:47:51;31.50;35.10
10538;DHT22;5317;49.048;8.468;2023-05-29T12:50:23;31.60;35.30
10538;DHT22;5317;49.048;8.468;2023-05-29T12:52:54;31.60;35.40
10538;DHT22;5317;49.048;8.468;2023-05-29T12:55:21;31.60;35.20
10538;DHT22;5317;49.048;8.468;2023-05-29T12:57:48;31.60;35.10
10538;DHT22;5317;49.048;8.468;2023-05-29T13:00:16;31.60;35.00
10538;DHT22;5317;49.048;8.468;2023-05-29T13:02:44;31.60;35.00
10538;DHT22;5317;49.048;8.468;2023-05-29T13:05:12;31.70;35.30
10538;DHT22;5317;49.048;8.468;2023-05-29T13:07:39;31.70;34.70
10538;DHT22;5317;49.048;8.468;2023-05-29T13:10:07;31.70;34.80
10538;DHT22;5317;49.048;8.468;2023-05-29T13:12:34;31.70;35.10
10538;DHT22;5317;49.048;8.468;2023-05-29T13:15:01;31.80;34.30
10538;DHT22;5317;49.048;8.468;2023-05-29T13:17:28;31.80;34.40
10538;DHT22;5317;49.048;8.468;2023-05-29T13:19:55;31.90;34.00
10538;DHT22;5317;49.048;8.468;2023-05-29T13:22:23;31.90;33.90
10538;DHT22;5317;49.048;8.468;2023-05-29T13:24:56;31.80;33.30
10538;DHT22;5317;49.048;8.468;2023-05-29T13:27:23;31.80;33.20
10538;DHT22;5317;49.048;8.468;2023-05-29T13:29:50;31.80;33.50
10538;DHT22;5317;49.048;8.468;2023-05-29T13:32:17;31.80;34.70
10538;DHT22;5317;49.048;8.468;2023-05-29T13:34:44;31.90;34.70
10538;DHT22;5317;49.048;8.468;2023-05-29T13:37:10;31.90;34.90
10538;DHT22;5317;49.048;8.468;2023-05-29T13:39:39;31.90;34.30
10538;DHT22;5317;49.048;8.468;2023-05-29T13:42:07;32.00;34.00
10538;DHT22;5317;49.048;8.468;2023-05-29T13:44:34;32.00;33.70
10538;DHT22;5317;49.048;8.468;2023-05-29T13:47:01;32.00;34.30
10538;DHT22;5317;49.048;8.468;2023-05-29T13:49:28;32.00;34.30
10538;DHT22;5317;49.048;8.468;2023-05-29T13:51:55;32.10;34.40
10538;DHT22;5317;49.048;8.468;2023-05-29T13:54:23;32.10;33.90
10538;DHT22;5317;49.048;8.468;2023-05-29T13:56:51;32.10;33.80
10538;DHT22;5317;49.048;8.468;2023-05-29T13:59:18;32.10;33.30
10538;DHT22;5317;49.048;8.468;2023-05-29T14:01:45;32.20;33.90
10538;DHT22;5317;49.048;8.468;2023-05-29T14:04:12;32.10;32.80
10538;DHT22;5317;49.048;8.468;2023-05-29T14:06:39;32.10;33.10
10538;DHT22;5317;49.048;8.468;2023-05-29T14:09:06;32.10;34.00
10538;DHT22;5317;49.048;8.468;2023-05-29T14:11:35;32.10;33.60
10538;DHT22;5317;49.048;8.468;2023-05-29T14:14:04;32.10;33.60
10538;DHT22;5317;49.048;8.468;2023-05-29T14:16:31;32.10;33.30
10538;DHT22;5317;49.048;8.468;2023-05-29T14:18:58;32.10;33.70
10538;DHT22;5317;49.048;8.468;2023-05-29T14:21:25;32.10;33.60
10538;DHT22;5317;49.048;8.468;2023-05-29T14:23:52;32.10;33.10
10538;DHT22;5317;49.048;8.468;2023-05-29T14:26:19;32.10;32.90
10538;DHT22;5317;49.048;8.468;2023-05-29T14:28:46;32.10;33.60
10538;DHT22;5317;49.048;8.468;2023-05-29T14:31:14;32.10;33.80
10538;DHT22;5317;49.048;8.468;2023-05-29T14:33:41;32.10;33.80
10538;DHT22;5317;49.048;8.468;2023-05-29T14:36:08;32.10;34.50
10538;DHT22;5317;49.048;8.468;2023-05-29T14:38:35;32.10;33.80
10538;DHT22;5317;49.048;8.468;2023-05-29T14:41:02;32.00;33.60
10538;DHT22;5317;49.048;8.468;2023-05-29T14:43:29;32.00;32.90
10538;DHT22;5317;49.048;8.468;2023-05-29T14:45:56;31.90;32.20
10538;DHT22;5317;49.048;8.468;2023-05-29T14:48:24;31.90;32.50
10538;DHT22;5317;49.048;8.468;2023-05-29T14:50:51;31.80;33.00
10538;DHT22;5317;49.048;8.468;2023-05-29T14:53:18;31.80;32.60
10538;DHT22;5317;49.048;8.468;2023-05-29T14:55:46;31.70;32.80
10538;DHT22;5317;49.048;8.468;2023-05-29T14:58:13;31.70;32.70
10538;DHT22;5317;49.048;8.468;2023-05-29T15:00:40;31.70;32.50
10538;DHT22;5317;49.048;8.468;2023-05-29T15:03:07;31.70;33.00
10538;DHT22;5317;49.048;8.468;2023-05-29T15:05:35;31.70;33.00
10538;DHT22;5317;49.048;8.468;2023-05-29T15:08:02;31.70;33.20
10538;DHT22;5317;49.048;8.468;2023-05-29T15:10:29;31.70;32.90
10538;DHT22;5317;49.048;8.468;2023-05-29T15:12:56;31.70;32.90
10538;DHT22;5317;49.048;8.468;2023-05-29T15:15:23;31.60;32.70
10538;DHT22;5317;49.048;8.468;2023-05-29T15:17:51;31.60;32.80
10538;DHT22;5317;49.048;8.468;2023-05-29T15:20:21;31.50;33.70
10538;DHT22;5317;49.048;8.468;2023-05-29T15:22:50;31.50;33.10
10538;DHT22;5317;49.048;8.468;2023-05-29T15:25:18;31.50;33.20
10538;DHT22;5317;49.048;8.468;2023-05-29T15:27:45;31.50;33.30
10538;DHT22;5317;49.048;8.468;2023-05-29T15:30:14;31.40;33.70
10538;DHT22;5317;49.048;8.468;2023-05-29T15:32:42;31.40;33.90
10538;DHT22;5317;49.048;8.468;2023-05-29T15:35:10;31.40;33.80
10538;DHT22;5317;49.048;8.468;2023-05-29T15:37:37;31.30;33.90
10538;DHT22;5317;49.048;8.468;2023-05-29T15:40:07;31.40;34.10
10538;DHT22;5317;49.048;8.468;2023-05-29T15:42:34;31.30;33.50
10538;DHT22;5317;49.048;8.468;2023-05-29T15:45:02;31.30;34.00
10538;DHT22;5317;49.048;8.468;2023-05-29T15:47:29;31.30;33.80
10538;DHT22;5317;49.048;8.468;2023-05-29T15:49:56;31.20;32.80
10538;DHT22;5317;49.048;8.468;2023-05-29T15:52:24;31.10;32.80
10538;DHT22;5317;49.048;8.468;2023-05-29T15:54:51;31.10;32.50